sensor_id;sensor_type;location;lat;lon;timestamp;pressure;altitude;pressure_sealevel;temperature;humidity
44297;BME280;51842;47.450;8.654;2023-04-10T00:02:25;95943.16;;;3.01;86.13
44297;BME280;51842;47.450;8.654;2023-04-10T00:04:51;95945.59;;;2.96;86.62
44297;BME280;51842;47.450;8.654;2023-04-10T00:07:17;95943.19;;;2.95;86.55
44297;BME280;51842;47.450;8.654;2023-04-10T00:09:43;95935.28;;;2.95;86.70
44297;BME280;51842;47.450;8.654;2023-04-10T00:12:08;95939.94;;;2.93;87.30
44297;BME280;51842;47.450;8.654;2023-04-10T00:14:36;95938.34;;;2.92;86.97
44297;BME280;51842;47.450;8.654;2023-04-10T00:17:02;95923.97;;;2.88;87.60
44297;BME280;51842;47.450;8.654;2023-04-10T00:19:28;95935.75;;;2.85;87.71
44297;BME280;51842;47.450;8.654;2023-04-10T00:21:54;95936.16;;;2.82;88.28
44297;BME280;51842;47.450;8.654;2023-04-10T00:24:20;95930.47;;;2.78;88.37
44297;BME280;51842;47.450;8.654;2023-04-10T00:26:46;95927.25;;;2.76;88.63
44297;BME280;51842;47.450;8.654;2023-04-10T00:29:11;95927.22;;;2.83;87.97
44297;BME280;51842;47.450;8.654;2023-04-10T00:31:37;95926.00;;;2.86;88.34
44297;BME280;51842;47.450;8.654;2023-04-10T00:34:03;95921.16;;;2.89;87.95
44297;BME280;51842;47.450;8.654;2023-04-10T00:36:28;95920.53;;;2.87;87.81
44297;BME280;51842;47.450;8.654;2023-04-10T00:38:56;95913.44;;;2.88;87.48
44297;BME280;51842;47.450;8.654;2023-04-10T00:41:22;95918.34;;;2.77;87.94
44297;BME280;51842;47.450;8.654;2023-04-10T00:43:48;95919.78;;;2.73;88.25
44297;BME280;51842;47.450;8.654;2023-04-10T00:46:15;95921.00;;;2.71;88.51
44297;BME280;51842;47.450;8.654;2023-04-10T00:48:41;95913.50;;;2.68;89.21
44297;BME280;51842;47.450;8.654;2023-04-10T00:51:07;95918.16;;;2.66;89.18
44297;BME280;51842;47.450;8.654;2023-04-10T00:53:32;95911.72;;;2.62;89.74
44297;BME280;51842;47.450;8.654;2023-04-10T00:56:00;95913.31;;;2.63;89.48
44297;BME280;51842;47.450;8.654;2023-04-10T00:58:26;95915.94;;;2.63;89.81
44297;BME280;51842;47.450;8.654;2023-04-10T01:00:52;95914.13;;;2.63;89.81
44297;BME280;51842;47.450;8.654;2023-04-10T01:03:20;95917.38;;;2.59;90.37
44297;BME280;51842;47.450;8.654;2023-04-10T01:06:15;95912.53;;;2.55;90.16
44297;BME280;51842;47.450;8.654;2023-04-10T01:09:16;95925.91;;;2.54;90.88
44297;BME280;51842;47.450;8.654;2023-04-10T01:17:53;95923.06;;;2.55;90.31
44297;BME280;51842;47.450;8.654;2023-04-10T01:20:26;95922.25;;;2.48;90.64
44297;BME280;51842;47.450;8.654;2023-04-10T01:26:09;95920.88;;;2.26;92.19
44297;BME280;51842;47.450;8.654;2023-04-10T01:28:52;95914.41;;;2.22;92.16
44297;BME280;51842;47.450;8.654;2023-04-10T01:31:38;95912.38;;;2.17;92.26
44297;BME280;51842;47.450;8.654;2023-04-10T01:34:16;95912.97;;;2.19;92.74
44297;BME280;51842;47.450;8.654;2023-04-10T01:36:52;95913.41;;;2.23;92.51
44297;BME280;51842;47.450;8.654;2023-04-10T01:39:21;95913.00;;;2.26;92.10
44297;BME280;51842;47.450;8.654;2023-04-10T01:41:51;95924.50;;;2.25;91.78
44297;BME280;51842;47.450;8.654;2023-04-10T01:44:24;95918.84;;;2.15;91.84
44297;BME280;51842;47.450;8.654;2023-04-10T01:46:54;95915.22;;;2.09;92.55
44297;BME280;51842;47.450;8.654;2023-04-10T01:49:22;95917.66;;;2.11;92.93
44297;BME280;51842;47.450;8.654;2023-04-10T01:51:48;95916.84;;;2.10;92.71
44297;BME280;51842;47.450;8.654;2023-04-10T01:54:16;95917.66;;;2.04;92.48
44297;BME280;51842;47.450;8.654;2023-04-10T01:56:42;95917.06;;;1.95;93.02
44297;BME280;51842;47.450;8.654;2023-04-10T01:59:08;95919.88;;;1.94;93.46
44297;BME280;51842;47.450;8.654;2023-04-10T02:01:34;95915.00;;;1.91;92.64
44297;BME280;51842;47.450;8.654;2023-04-10T02:04:01;95919.06;;;1.73;93.78
44297;BME280;51842;47.450;8.654;2023-04-10T02:06:50;95929.97;;;1.64;94.13
44297;BME280;51842;47.450;8.654;2023-04-10T02:10:08;95916.41;;;1.60;93.80
44297;BME280;51842;47.450;8.654;2023-04-10T02:12:49;95921.22;;;1.50;94.69
44297;BME280;51842;47.450;8.654;2023-04-10T02:15:22;95922.88;;;1.51;95.31
44297;BME280;51842;47.450;8.654;2023-04-10T02:17:51;95917.81;;;1.49;95.81
44297;BME280;51842;47.450;8.654;2023-04-10T02:20:19;95920.03;;;1.52;95.99
44297;BME280;51842;47.450;8.654;2023-04-10T02:22:48;95915.38;;;1.48;96.09
44297;BME280;51842;47.450;8.654;2023-04-10T02:25:15;95913.34;;;1.43;96.64
44297;BME280;51842;47.450;8.654;2023-04-10T02:27:41;95912.13;;;1.39;97.06
44297;BME280;51842;47.450;8.654;2023-04-10T02:30:07;95909.69;;;1.44;97.72
44297;BME280;51842;47.450;8.654;2023-04-10T02:32:33;95912.94;;;1.46;97.66
44297;BME280;51842;47.450;8.654;2023-04-10T02:35:00;95907.50;;;1.48;98.05
44297;BME280;51842;47.450;8.654;2023-04-10T02:37:27;95905.88;;;1.47;97.80
44297;BME280;51842;47.450;8.654;2023-04-10T02:39:53;95913.97;;;1.45;98.21
44297;BME280;51842;47.450;8.654;2023-04-10T02:42:20;95913.34;;;1.43;97.37
44297;BME280;51842;47.450;8.654;2023-04-10T02:44:47;95914.94;;;1.37;97.31
44297;BME280;51842;47.450;8.654;2023-04-10T02:47:13;95921.59;;;1.33;97.13
44297;BME280;51842;47.450;8.654;2023-04-10T02:49:39;95926.84;;;1.33;97.60
44297;BME280;51842;47.450;8.654;2023-04-10T02:52:04;95931.69;;;1.30;97.50
44297;BME280;51842;47.450;8.654;2023-04-10T02:54:30;95927.03;;;1.25;97.00
44297;BME280;51842;47.450;8.654;2023-04-10T02:56:56;95929.63;;;1.19;96.42
44297;BME280;51842;47.450;8.654;2023-04-10T02:59:22;95927.78;;;1.12;96.07
44297;BME280;51842;47.450;8.654;2023-04-10T03:01:49;95926.31;;;0.97;97.05
44297;BME280;51842;47.450;8.654;2023-04-10T03:04:15;95927.31;;;0.89;97.50
44297;BME280;51842;47.450;8.654;2023-04-10T03:06:40;95931.50;;;0.83;97.83
44297;BME280;51842;47.450;8.654;2023-04-10T03:09:06;95926.66;;;0.80;97.56
44297;BME280;51842;47.450;8.654;2023-04-10T03:11:32;95931.50;;;0.77;97.92
44297;BME280;51842;47.450;8.654;2023-04-10T03:13:58;95930.69;;;0.76;98.76
44297;BME280;51842;47.450;8.654;2023-04-10T03:16:24;95927.44;;;0.74;99.03
44297;BME280;51842;47.450;8.654;2023-04-10T03:18:51;95934.50;;;0.74;99.23
44297;BME280;51842;47.450;8.654;2023-04-10T03:21:17;95928.03;;;0.69;99.61
44297;BME280;51842;47.450;8.654;2023-04-10T03:23:43;95937.28;;;0.72;100.00
44297;BME280;51842;47.450;8.654;2023-04-10T03:26:08;95925.59;;;0.68;99.54
44297;BME280;51842;47.450;8.654;2023-04-10T03:28:34;95933.03;;;0.64;100.00
44297;BME280;51842;47.450;8.654;2023-04-10T03:31:02;95923.34;;;0.65;100.00
44297;BME280;51842;47.450;8.654;2023-04-10T03:33:28;95929.59;;;0.64;100.00
44297;BME280;51842;47.450;8.654;2023-04-10T03:35:54;95915.50;;;0.65;100.00
44297;BME280;51842;47.450;8.654;2023-04-10T03:38:22;95920.97;;;0.70;100.00
44297;BME280;51842;47.450;8.654;2023-04-10T03:40:48;95912.91;;;0.72;100.00
44297;BME280;51842;47.450;8.654;2023-04-10T03:43:13;95924.44;;;0.77;100.00
44297;BME280;51842;47.450;8.654;2023-04-10T03:45:39;95917.78;;;0.81;100.00
44297;BME280;51842;47.450;8.654;2023-04-10T03:48:05;95914.59;;;0.86;100.00
44297;BME280;51842;47.450;8.654;2023-04-10T03:50:31;95916.44;;;0.92;100.00
44297;BME280;51842;47.450;8.654;2023-04-10T03:52:56;95914.66;;;1.06;100.00
44297;BME280;51842;47.450;8.654;2023-04-10T03:55:22;95918.94;;;1.20;100.00
44297;BME280;51842;47.450;8.654;2023-04-10T03:57:48;95915.69;;;1.18;100.00
44297;BME280;51842;47.450;8.654;2023-04-10T04:00:15;95909.50;;;1.39;100.00
44297;BME280;51842;47.450;8.654;2023-04-10T04:02:42;95914.59;;;1.60;99.43
44297;BME280;51842;47.450;8.654;2023-04-10T04:05:08;95905.72;;;1.61;97.88
44297;BME280;51842;47.450;8.654;2023-04-10T04:07:34;95910.56;;;1.65;97.95
44297;BME280;51842;47.450;8.654;2023-04-10T04:10:01;95911.38;;;1.72;97.52
44297;BME280;51842;47.450;8.654;2023-04-10T04:12:26;95910.97;;;1.81;97.06
44297;BME280;51842;47.450;8.654;2023-04-10T04:14:52;95911.41;;;1.85;96.00
44297;BME280;51842;47.450;8.654;2023-04-10T04:17:18;95908.78;;;1.85;96.28
44297;BME280;51842;47.450;8.654;2023-04-10T04:19:44;95904.72;;;1.82;95.85
44297;BME280;51842;47.450;8.654;2023-04-10T04:22:10;95899.47;;;1.82;95.81
44297;BME280;51842;47.450;8.654;2023-04-10T04:24:36;95905.94;;;1.80;95.79
44297;BME280;51842;47.450;8.654;2023-04-10T04:27:02;95914.03;;;1.85;95.10
44297;BME280;51842;47.450;8.654;2023-04-10T04:29:28;95904.72;;;1.82;94.86
44297;BME280;51842;47.450;8.654;2023-04-10T04:31:54;95909.97;;;1.82;94.84
44297;BME280;51842;47.450;8.654;2023-04-10T04:34:19;95917.06;;;1.82;95.64
44297;BME280;51842;47.450;8.654;2023-04-10T04:36:45;95913.19;;;1.84;94.18
44297;BME280;51842;47.450;8.654;2023-04-10T04:39:11;95920.06;;;1.79;93.89
44297;BME280;51842;47.450;8.654;2023-04-10T04:41:37;95918.66;;;1.70;92.71
44297;BME280;51842;47.450;8.654;2023-04-10T04:44:04;95916.00;;;1.56;93.58
44297;BME280;51842;47.450;8.654;2023-04-10T04:46:31;95921.63;;;1.47;93.92
44297;BME280;51842;47.450;8.654;2023-04-10T04:48:56;95931.31;;;1.39;93.71
44297;BME280;51842;47.450;8.654;2023-04-10T04:51:22;95924.44;;;1.32;93.89
44297;BME280;51842;47.450;8.654;2023-04-10T04:53:48;95924.19;;;1.20;95.06
44297;BME280;51842;47.450;8.654;2023-04-10T04:56:14;95924.38;;;1.12;95.15
44297;BME280;51842;47.450;8.654;2023-04-10T04:58:40;95927.78;;;1.06;95.27
44297;BME280;51842;47.450;8.654;2023-04-10T05:01:06;95935.63;;;0.99;95.06
44297;BME280;51842;47.450;8.654;2023-04-10T05:03:32;95943.69;;;0.91;95.63
44297;BME280;51842;47.450;8.654;2023-04-10T05:05:58;95946.25;;;0.84;96.51
44297;BME280;51842;47.450;8.654;2023-04-10T05:08:24;95951.31;;;0.86;96.74
44297;BME280;51842;47.450;8.654;2023-04-10T05:10:49;95951.53;;;0.91;97.85
44297;BME280;51842;47.450;8.654;2023-04-10T05:13:15;95943.06;;;0.96;98.25
44297;BME280;51842;47.450;8.654;2023-04-10T05:15:43;95944.91;;;1.02;98.14
44297;BME280;51842;47.450;8.654;2023-04-10T05:18:09;95949.38;;;1.08;98.33
44297;BME280;51842;47.450;8.654;2023-04-10T05:20:35;95948.56;;;1.07;97.42
44297;BME280;51842;47.450;8.654;2023-04-10T05:23:02;95944.28;;;1.00;98.04
44297;BME280;51842;47.450;8.654;2023-04-10T05:25:28;95943.09;;;1.02;98.68
44297;BME280;51842;47.450;8.654;2023-04-10T05:27:54;95938.47;;;1.04;98.64
44297;BME280;51842;47.450;8.654;2023-04-10T05:30:20;95927.59;;;1.07;99.57
44297;BME280;51842;47.450;8.654;2023-04-10T05:32:46;95933.03;;;1.12;100.00
44297;BME280;51842;47.450;8.654;2023-04-10T05:35:12;95933.50;;;1.23;100.00
44297;BME280;51842;47.450;8.654;2023-04-10T05:37:37;95925.03;;;1.34;100.00
44297;BME280;51842;47.450;8.654;2023-04-10T05:40:04;95933.16;;;1.46;100.00
44297;BME280;51842;47.450;8.654;2023-04-10T05:42:30;95928.94;;;1.58;100.00
44297;BME280;51842;47.450;8.654;2023-04-10T05:44:56;95927.75;;;1.74;100.00
44297;BME280;51842;47.450;8.654;2023-04-10T05:47:21;95933.00;;;1.94;100.00
44297;BME280;51842;47.450;8.654;2023-04-10T05:49:47;95940.69;;;2.15;100.00
44297;BME280;51842;47.450;8.654;2023-04-10T05:52:13;95945.50;;;2.38;99.66
44297;BME280;51842;47.450;8.654;2023-04-10T05:54:38;95941.06;;;2.59;98.71
44297;BME280;51842;47.450;8.654;2023-04-10T05:57:04;95945.84;;;2.82;98.13
44297;BME280;51842;47.450;8.654;2023-04-10T05:59:30;95949.44;;;3.07;97.03
44297;BME280;51842;47.450;8.654;2023-04-10T06:01:56;95942.44;;;3.33;95.50
44297;BME280;51842;47.450;8.654;2023-04-10T06:04:22;95942.88;;;3.61;95.20
44297;BME280;51842;47.450;8.654;2023-04-10T06:06:48;95947.41;;;3.86;93.59
44297;BME280;51842;47.450;8.654;2023-04-10T06:09:14;95942.41;;;4.03;90.77
44297;BME280;51842;47.450;8.654;2023-04-10T06:11:40;95957.13;;;4.17;89.42
44297;BME280;51842;47.450;8.654;2023-04-10T06:14:06;95953.50;;;4.36;89.05
44297;BME280;51842;47.450;8.654;2023-04-10T06:16:31;95947.50;;;4.48;87.57
44297;BME280;51842;47.450;8.654;2023-04-10T06:18:57;95955.00;;;4.69;87.21
44297;BME280;51842;47.450;8.654;2023-04-10T06:21:23;95948.34;;;4.85;87.01
44297;BME280;51842;47.450;8.654;2023-04-10T06:23:50;95958.63;;;4.93;85.01
44297;BME280;51842;47.450;8.654;2023-04-10T06:26:15;95950.47;;;4.95;83.77
44297;BME280;51842;47.450;8.654;2023-04-10T06:28:41;95955.69;;;5.01;83.03
44297;BME280;51842;47.450;8.654;2023-04-10T06:31:07;95941.84;;;5.24;82.73
44297;BME280;51842;47.450;8.654;2023-04-10T06:33:33;95949.16;;;5.41;82.13
44297;BME280;51842;47.450;8.654;2023-04-10T06:36:03;95948.94;;;5.42;80.65
44297;BME280;51842;47.450;8.654;2023-04-10T06:38:29;95951.41;;;5.55;79.30
44297;BME280;51842;47.450;8.654;2023-04-10T06:40:55;95951.56;;;5.72;79.74
44297;BME280;51842;47.450;8.654;2023-04-10T06:43:21;95952.88;;;5.82;77.94
44297;BME280;51842;47.450;8.654;2023-04-10T06:45:47;95955.19;;;5.90;77.30
44297;BME280;51842;47.450;8.654;2023-04-10T06:48:12;95956.44;;;5.87;76.02
44297;BME280;51842;47.450;8.654;2023-04-10T06:50:39;95956.53;;;5.99;77.08
44297;BME280;51842;47.450;8.654;2023-04-10T06:53:05;95956.06;;;6.14;77.68
44297;BME280;51842;47.450;8.654;2023-04-10T06:55:30;95944.84;;;6.30;76.37
44297;BME280;51842;47.450;8.654;2023-04-10T06:57:56;95947.84;;;6.45;74.81
44297;BME280;51842;47.450;8.654;2023-04-10T07:00:23;95936.47;;;6.68;74.19
44297;BME280;51842;47.450;8.654;2023-04-10T07:02:50;95944.81;;;7.01;72.59
44297;BME280;51842;47.450;8.654;2023-04-10T07:05:15;95945.59;;;7.25;70.90
44297;BME280;51842;47.450;8.654;2023-04-10T07:07:42;95931.59;;;7.41;69.26
44297;BME280;51842;47.450;8.654;2023-04-10T07:10:08;95932.94;;;7.55;69.06
44297;BME280;51842;47.450;8.654;2023-04-10T07:12:34;95937.81;;;7.92;68.66
44297;BME280;51842;47.450;8.654;2023-04-10T07:15:00;95943.56;;;8.01;66.31
44297;BME280;51842;47.450;8.654;2023-04-10T07:17:26;95939.88;;;8.19;66.46
44297;BME280;51842;47.450;8.654;2023-04-10T07:19:51;95944.94;;;8.20;65.55
44297;BME280;51842;47.450;8.654;2023-04-10T07:22:17;95946.25;;;8.51;64.49
44297;BME280;51842;47.450;8.654;2023-04-10T07:24:43;95950.25;;;8.88;63.77
44297;BME280;51842;47.450;8.654;2023-04-10T07:27:09;95955.03;;;9.08;63.17
44297;BME280;51842;47.450;8.654;2023-04-10T07:29:34;95948.31;;;9.44;61.72
44297;BME280;51842;47.450;8.654;2023-04-10T07:32:00;95952.63;;;9.72;60.67
44297;BME280;51842;47.450;8.654;2023-04-10T07:34:26;95947.81;;;9.96;59.48
44297;BME280;51842;47.450;8.654;2023-04-10T07:36:52;95946.41;;;10.15;58.52
44297;BME280;51842;47.450;8.654;2023-04-10T07:39:17;95946.03;;;10.29;58.54
44297;BME280;51842;47.450;8.654;2023-04-10T07:41:43;95940.53;;;10.40;57.65
44297;BME280;51842;47.450;8.654;2023-04-10T07:44:09;95949.28;;;10.73;57.09
44297;BME280;51842;47.450;8.654;2023-04-10T07:46:36;95941.84;;;10.75;55.74
44297;BME280;51842;47.450;8.654;2023-04-10T07:49:02;95947.03;;;10.97;55.77
44297;BME280;51842;47.450;8.654;2023-04-10T07:51:28;95943.72;;;11.22;55.01
44297;BME280;51842;47.450;8.654;2023-04-10T07:53:54;95950.75;;;11.49;53.83
44297;BME280;51842;47.450;8.654;2023-04-10T07:56:20;95954.31;;;11.70;52.62
44297;BME280;51842;47.450;8.654;2023-04-10T07:58:47;95943.19;;;11.88;52.61
44297;BME280;51842;47.450;8.654;2023-04-10T08:01:14;95950.41;;;12.08;51.29
44297;BME280;51842;47.450;8.654;2023-04-10T08:03:44;95953.06;;;11.93;51.97
44297;BME280;51842;47.450;8.654;2023-04-10T08:06:11;95952.03;;;12.30;50.39
44297;BME280;51842;47.450;8.654;2023-04-10T08:08:40;95959.00;;;12.56;49.81
44297;BME280;51842;47.450;8.654;2023-04-10T08:11:32;95958.97;;;12.87;49.40
44297;BME280;51842;47.450;8.654;2023-04-10T08:14:00;95962.41;;;13.08;49.09
44297;BME280;51842;47.450;8.654;2023-04-10T08:16:29;95956.50;;;13.21;49.19
44297;BME280;51842;47.450;8.654;2023-04-10T08:18:57;95957.56;;;13.35;48.35
44297;BME280;51842;47.450;8.654;2023-04-10T08:21:26;95962.78;;;13.66;48.36
44297;BME280;51842;47.450;8.654;2023-04-10T08:23:58;95960.28;;;13.90;47.17
44297;BME280;51842;47.450;8.654;2023-04-10T08:26:25;95955.63;;;14.06;47.63
44297;BME280;51842;47.450;8.654;2023-04-10T08:28:54;95948.59;;;14.15;46.94
44297;BME280;51842;47.450;8.654;2023-04-10T08:31:22;95955.69;;;14.01;46.42
44297;BME280;51842;47.450;8.654;2023-04-10T08:33:49;95953.97;;;14.15;46.30
44297;BME280;51842;47.450;8.654;2023-04-10T08:36:15;95954.84;;;14.45;44.99
44297;BME280;51842;47.450;8.654;2023-04-10T08:38:42;95947.78;;;14.88;45.10
44297;BME280;51842;47.450;8.654;2023-04-10T08:41:13;95946.31;;;15.01;44.54
44297;BME280;51842;47.450;8.654;2023-04-10T08:43:39;95942.06;;;15.24;43.42
44297;BME280;51842;47.450;8.654;2023-04-10T08:46:05;95950.63;;;15.50;42.30
44297;BME280;51842;47.450;8.654;2023-04-10T08:51:49;95952.59;;;15.68;41.73
44297;BME280;51842;47.450;8.654;2023-04-10T08:54:28;95955.69;;;16.00;41.92
44297;BME280;51842;47.450;8.654;2023-04-10T08:56:55;95961.41;;;16.31;41.89
44297;BME280;51842;47.450;8.654;2023-04-10T08:59:21;95958.94;;;16.15;41.74
44297;BME280;51842;47.450;8.654;2023-04-10T09:01:47;95968.53;;;16.22;42.75
44297;BME280;51842;47.450;8.654;2023-04-10T09:04:14;95957.88;;;16.68;42.70
44297;BME280;51842;47.450;8.654;2023-04-10T09:06:41;95954.00;;;16.93;40.18
44297;BME280;51842;47.450;8.654;2023-04-10T09:09:07;95954.84;;;17.35;40.15
44297;BME280;51842;47.450;8.654;2023-04-10T09:14:23;95949.16;;;17.23;39.56
44297;BME280;51842;47.450;8.654;2023-04-10T09:16:52;95950.66;;;17.56;38.88
44297;BME280;51842;47.450;8.654;2023-04-10T09:19:33;95949.09;;;17.83;40.36
44297;BME280;51842;47.450;8.654;2023-04-10T09:21:59;95943.69;;;17.69;38.00
44297;BME280;51842;47.450;8.654;2023-04-10T09:24:25;95939.56;;;17.99;38.74
44297;BME280;51842;47.450;8.654;2023-04-10T09:26:52;95931.81;;;17.84;38.11
44297;BME280;51842;47.450;8.654;2023-04-10T09:29:18;95936.47;;;18.06;38.17
44297;BME280;51842;47.450;8.654;2023-04-10T09:31:45;95926.88;;;18.36;37.33
44297;BME280;51842;47.450;8.654;2023-04-10T09:34:22;95925.72;;;18.51;37.21
44297;BME280;51842;47.450;8.654;2023-04-10T09:36:57;95937.09;;;17.89;37.47
44297;BME280;51842;47.450;8.654;2023-04-10T09:39:41;95931.34;;;18.41;37.66
44297;BME280;51842;47.450;8.654;2023-04-10T09:42:10;95930.91;;;18.92;36.83
44297;BME280;51842;47.450;8.654;2023-04-10T09:44:38;95924.78;;;19.32;35.92
44297;BME280;51842;47.450;8.654;2023-04-10T09:47:20;95928.91;;;19.69;34.91
44297;BME280;51842;47.450;8.654;2023-04-10T09:49:47;95920.84;;;19.95;34.80
44297;BME280;51842;47.450;8.654;2023-04-10T09:52:34;95920.00;;;19.69;36.01
44297;BME280;51842;47.450;8.654;2023-04-10T09:55:07;95924.50;;;19.91;34.06
44297;BME280;51842;47.450;8.654;2023-04-10T09:57:35;95911.31;;;20.06;34.02
44297;BME280;51842;47.450;8.654;2023-04-10T10:00:05;95921.97;;;20.29;33.84
44297;BME280;51842;47.450;8.654;2023-04-10T10:02:36;95915.13;;;20.75;33.71
44297;BME280;51842;47.450;8.654;2023-04-10T10:05:08;95908.34;;;21.07;32.01
44297;BME280;51842;47.450;8.654;2023-04-10T10:07:36;95907.22;;;21.08;33.06
44297;BME280;51842;47.450;8.654;2023-04-10T10:10:03;95904.22;;;21.01;32.64
44297;BME280;51842;47.450;8.654;2023-04-10T10:12:43;95892.97;;;20.90;33.12
44297;BME280;51842;47.450;8.654;2023-04-10T10:18:43;95877.25;;;20.14;33.46
44297;BME280;51842;47.450;8.654;2023-04-10T10:21:09;95879.19;;;20.31;33.46
44297;BME280;51842;47.450;8.654;2023-04-10T10:23:37;95881.31;;;20.90;33.08
44297;BME280;51842;47.450;8.654;2023-04-10T10:26:05;95876.53;;;21.34;32.46
44297;BME280;51842;47.450;8.654;2023-04-10T10:28:32;95873.94;;;21.46;31.84
44297;BME280;51842;47.450;8.654;2023-04-10T10:31:01;95870.28;;;21.51;32.06
44297;BME280;51842;47.450;8.654;2023-04-10T10:33:28;95862.75;;;21.18;31.83
44297;BME280;51842;47.450;8.654;2023-04-10T10:36:04;95864.91;;;21.42;30.79
44297;BME280;51842;47.450;8.654;2023-04-10T10:38:32;95867.09;;;21.48;31.12
44297;BME280;51842;47.450;8.654;2023-04-10T10:41:19;95860.41;;;21.76;30.73
44297;BME280;51842;47.450;8.654;2023-04-10T10:43:57;95855.75;;;21.76;30.89
44297;BME280;51842;47.450;8.654;2023-04-10T10:49:07;95848.16;;;21.90;30.19
44297;BME280;51842;47.450;8.654;2023-04-10T10:51:47;95835.59;;;21.86;30.09
44297;BME280;51842;47.450;8.654;2023-04-10T10:54:33;95827.25;;;22.12;30.77
44297;BME280;51842;47.450;8.654;2023-04-10T10:57:01;95834.44;;;22.16;30.82
44297;BME280;51842;47.450;8.654;2023-04-10T11:02:18;95815.97;;;22.43;30.65
44297;BME280;51842;47.450;8.654;2023-04-10T11:04:47;95820.22;;;22.65;29.12
44297;BME280;51842;47.450;8.654;2023-04-10T11:07:14;95819.34;;;22.73;30.04
44297;BME280;51842;47.450;8.654;2023-04-10T11:09:53;95822.81;;;23.07;29.40
44297;BME280;51842;47.450;8.654;2023-04-10T11:12:23;95825.16;;;22.96;27.77
44297;BME280;51842;47.450;8.654;2023-04-10T11:14:58;95817.34;;;22.49;28.13
44297;BME280;51842;47.450;8.654;2023-04-10T11:17:52;95825.38;;;22.46;27.97
44297;BME280;51842;47.450;8.654;2023-04-10T11:20:20;95814.34;;;22.63;27.91
44297;BME280;51842;47.450;8.654;2023-04-10T11:23:09;95817.75;;;22.84;28.04
44297;BME280;51842;47.450;8.654;2023-04-10T11:25:52;95817.13;;;23.37;27.94
44297;BME280;51842;47.450;8.654;2023-04-10T11:28:44;95822.09;;;23.59;27.39
44297;BME280;51842;47.450;8.654;2023-04-10T11:31:21;95812.50;;;23.00;28.25
44297;BME280;51842;47.450;8.654;2023-04-10T11:33:59;95809.09;;;23.16;27.98
44297;BME280;51842;47.450;8.654;2023-04-10T11:36:26;95808.31;;;23.27;28.62
44297;BME280;51842;47.450;8.654;2023-04-10T11:39:03;95803.72;;;23.68;26.94
44297;BME280;51842;47.450;8.654;2023-04-10T11:41:43;95810.63;;;23.90;27.52
44297;BME280;51842;47.450;8.654;2023-04-10T11:44:17;95804.19;;;23.83;26.82
44297;BME280;51842;47.450;8.654;2023-04-10T11:46:46;95797.16;;;23.82;27.29
44297;BME280;51842;47.450;8.654;2023-04-10T11:49:28;95793.88;;;24.16;27.41
44297;BME280;51842;47.450;8.654;2023-04-10T11:51:54;95804.25;;;23.98;26.93
44297;BME280;51842;47.450;8.654;2023-04-10T11:54:22;95802.31;;;23.99;27.02
44297;BME280;51842;47.450;8.654;2023-04-10T11:57:06;95799.31;;;24.16;27.73
44297;BME280;51842;47.450;8.654;2023-04-10T11:59:36;95798.88;;;24.14;26.85
44297;BME280;51842;47.450;8.654;2023-04-10T12:02:14;95796.44;;;24.25;26.78
44297;BME280;51842;47.450;8.654;2023-04-10T12:04:42;95788.25;;;24.25;26.86
44297;BME280;51842;47.450;8.654;2023-04-10T12:07:09;95790.91;;;24.65;26.38
44297;BME280;51842;47.450;8.654;2023-04-10T12:09:35;95787.88;;;24.83;26.10
44297;BME280;51842;47.450;8.654;2023-04-10T12:12:04;95788.72;;;24.71;25.50
44297;BME280;51842;47.450;8.654;2023-04-10T12:14:36;95784.59;;;24.77;26.91
44297;BME280;51842;47.450;8.654;2023-04-10T12:17:09;95777.91;;;25.06;24.63
44297;BME280;51842;47.450;8.654;2023-04-10T12:19:37;95779.44;;;25.35;25.72
44297;BME280;51842;47.450;8.654;2023-04-10T12:22:04;95774.94;;;24.96;25.22
44297;BME280;51842;47.450;8.654;2023-04-10T12:24:44;95768.16;;;25.05;25.03
44297;BME280;51842;47.450;8.654;2023-04-10T12:27:20;95772.16;;;24.92;25.30
44297;BME280;51842;47.450;8.654;2023-04-10T12:29:49;95770.91;;;25.56;24.88
44297;BME280;51842;47.450;8.654;2023-04-10T12:32:16;95770.44;;;25.70;24.55
44297;BME280;51842;47.450;8.654;2023-04-10T12:34:53;95757.28;;;25.76;24.59
44297;BME280;51842;47.450;8.654;2023-04-10T12:37:22;95751.69;;;25.69;24.32
44297;BME280;51842;47.450;8.654;2023-04-10T12:39:48;95759.28;;;25.59;24.06
44297;BME280;51842;47.450;8.654;2023-04-10T12:42:15;95763.13;;;25.74;23.23
44297;BME280;51842;47.450;8.654;2023-04-10T12:44:57;95763.03;;;25.51;22.43
44297;BME280;51842;47.450;8.654;2023-04-10T12:47:26;95757.06;;;25.65;23.20
44297;BME280;51842;47.450;8.654;2023-04-10T12:50:07;95749.16;;;25.60;22.91
44297;BME280;51842;47.450;8.654;2023-04-10T12:52:34;95754.53;;;25.37;23.48
44297;BME280;51842;47.450;8.654;2023-04-10T12:55:26;95753.69;;;25.52;23.05
44297;BME280;51842;47.450;8.654;2023-04-10T12:57:53;95733.38;;;24.99;23.29
44297;BME280;51842;47.450;8.654;2023-04-10T13:00:20;95734.44;;;24.62;24.02
44297;BME280;51842;47.450;8.654;2023-04-10T13:02:47;95741.91;;;24.50;24.23
44297;BME280;51842;47.450;8.654;2023-04-10T13:05:14;95729.50;;;24.52;24.31
44297;BME280;51842;47.450;8.654;2023-04-10T13:07:40;95728.31;;;24.37;24.40
44297;BME280;51842;47.450;8.654;2023-04-10T13:10:07;95726.38;;;24.38;24.93
44297;BME280;51842;47.450;8.654;2023-04-10T13:12:34;95729.09;;;24.22;24.81
44297;BME280;51842;47.450;8.654;2023-04-10T13:15:01;95717.38;;;24.06;25.19
44297;BME280;51842;47.450;8.654;2023-04-10T13:17:27;95729.31;;;24.01;25.17
44297;BME280;51842;47.450;8.654;2023-04-10T13:19:53;95724.91;;;23.96;24.99
44297;BME280;51842;47.450;8.654;2023-04-10T13:22:20;95721.63;;;24.19;24.92
44297;BME280;51842;47.450;8.654;2023-04-10T13:24:46;95714.06;;;24.12;24.93
44297;BME280;51842;47.450;8.654;2023-04-10T13:27:12;95716.31;;;24.22;24.93
44297;BME280;51842;47.450;8.654;2023-04-10T13:29:40;95710.94;;;24.26;25.75
44297;BME280;51842;47.450;8.654;2023-04-10T13:32:06;95705.47;;;24.54;25.17
44297;BME280;51842;47.450;8.654;2023-04-10T13:34:33;95702.19;;;24.80;24.63
44297;BME280;51842;47.450;8.654;2023-04-10T13:36:59;95706.16;;;24.83;24.75
44297;BME280;51842;47.450;8.654;2023-04-10T13:39:29;95706.53;;;25.01;25.45